»·PEaware :: ASA1948 KSFO-KLAX

ASA1948 :: KSFO-KLAX

FLIGHT INFORMATION

Flight Status: Arrived
Operator:
Alaska Airlines
More flights by this operator :: More flights under this callsign
Pilot: Jac C. (16067)
Aircraft: AIRBUS A320
(A320)
More flights by this aircraft type
Origin: KSFO San Francisco Intl
United States
Destination: KLAX Los Angeles Intl
United States
More flights between these airports :: More routes between these airports
Route: +SSTIK3 EBAYE BURGL IRNMN1
File this flight plan on PilotEdge
Remarks:
Altitude:
(Current/Filed)
33,000ft
Speed:
(Current/Filed)
430kts
Departed: 01-Feb-18 09:54 PM
Arrived: 01-Feb-18 10:53 PM
Distance/Time
Traveled:
293nm/0:59
Distance/Time
To Go:
Arrived

Flight Plot

Page will automatically refresh every two minutes.

Flight plan parsing failed; only flown route is shown


Map Options




Map Legend


Flown Route
Filed Route
Departure Airport
Arrival Airport
Navaid (VOR, NDB)
Fix

Horizontal Profiles

Position Reports

Time Latitude Longitude Heading Altitude Ground
Speed
01-Feb-18 21:32 37.615746 -122.383224 223 21ft 0kts
01-Feb-18 21:33 37.615746 -122.383224 223 21ft 0kts
01-Feb-18 21:34 37.615746 -122.383224 223 21ft 0kts
01-Feb-18 21:35 37.615746 -122.383224 223 21ft 0kts
01-Feb-18 21:36 37.615746 -122.383224 223 21ft 0kts
01-Feb-18 21:37 37.615746 -122.383224 223 21ft 0kts
01-Feb-18 21:38 37.615746 -122.383224 223 21ft 0kts
01-Feb-18 21:39 37.615746 -122.383224 223 21ft 0kts
01-Feb-18 21:40 37.615746 -122.383224 223 21ft 0kts
01-Feb-18 21:41 37.615746 -122.383224 223 21ft 0kts
01-Feb-18 21:42 37.615746 -122.383224 223 21ft 0kts
01-Feb-18 21:43 37.615746 -122.383224 223 21ft 0kts
01-Feb-18 21:44 37.615746 -122.383224 223 21ft 0kts
01-Feb-18 21:45 37.615746 -122.383224 223 21ft 0kts
01-Feb-18 21:46 37.615746 -122.383224 223 21ft 0kts
01-Feb-18 21:47 37.615746 -122.383224 223 21ft 0kts
01-Feb-18 21:48 37.615746 -122.383224 223 21ft 0kts
01-Feb-18 21:49 37.615746 -122.383224 223 21ft 0kts
01-Feb-18 21:50 37.615746 -122.383224 223 21ft 0kts
01-Feb-18 21:51 37.616009 -122.382910 223 21ft 2kts
01-Feb-18 21:52 37.616404 -122.382698 168 21ft 1kts
01-Feb-18 21:53 37.616426 -122.382704 170 21ft 0kts
01-Feb-18 21:54 37.616426 -122.382704 170 21ft 0kts
01-Feb-18 21:55 37.616383 -122.382694 169 21ft 3kts
01-Feb-18 21:56 37.615601 -122.381424 118 21ft 0kts
01-Feb-18 21:57 37.614014 -122.381368 208 21ft 14kts
01-Feb-18 21:58 37.610915 -122.383423 206 21ft 14kts
01-Feb-18 21:59 37.608943 -122.383121 121 21ft 10kts
01-Feb-18 22:00 37.622864 -122.373245 25 170ft 163kts
01-Feb-18 22:01 37.671830 -122.361721 357 3014ft 218kts
01-Feb-18 22:02 37.712824 -122.406253 259 5902ft 251kts
01-Feb-18 22:03 37.652054 -122.448603 187 8404ft 291kts
01-Feb-18 22:04 37.569862 -122.462088 189 10739ft 325kts
01-Feb-18 22:05 37.474861 -122.453445 140 12527ft 370kts
01-Feb-18 22:06 37.403965 -122.358117 132 14820ft 383kts
01-Feb-18 22:07 37.330565 -122.258138 133 16888ft 398kts
01-Feb-18 22:08 37.254445 -122.155106 133 18839ft 409kts
01-Feb-18 22:09 37.180356 -122.055173 134 20493ft 420kts
01-Feb-18 22:10 37.099893 -121.947000 134 22079ft 431kts
01-Feb-18 22:11 37.017410 -121.836476 134 23560ft 440kts
01-Feb-18 22:12 36.933271 -121.724113 134 24957ft 448kts
01-Feb-18 22:13 36.848392 -121.611166 135 26184ft 457kts
01-Feb-18 22:14 36.760777 -121.494988 135 27318ft 465kts
01-Feb-18 22:15 36.672310 -121.378101 135 28366ft 473kts
01-Feb-18 22:16 36.582190 -121.259455 136 29312ft 480kts
01-Feb-18 22:17 36.491029 -121.139853 136 30480ft 479kts
01-Feb-18 22:18 36.401215 -121.018243 133 31616ft 479kts
01-Feb-18 22:19 36.314816 -120.894116 133 32682ft 479kts
01-Feb-18 22:20 36.227879 -120.769682 133 33284ft 478kts
01-Feb-18 22:21 36.142547 -120.647984 133 33257ft 479kts
01-Feb-18 22:22 36.055280 -120.524066 133 33289ft 480kts
01-Feb-18 22:23 35.967493 -120.399801 133 33254ft 481kts
01-Feb-18 22:24 35.881343 -120.278865 138 33285ft 479kts
01-Feb-18 22:25 35.783277 -120.196189 153 33272ft 472kts
01-Feb-18 22:26 35.671498 -120.112292 152 33275ft 472kts
01-Feb-18 22:27 35.560223 -120.027933 152 33247ft 473kts
01-Feb-18 22:28 35.448280 -119.943677 152 33257ft 473kts
01-Feb-18 22:29 35.339614 -119.862175 149 33305ft 469kts
01-Feb-18 22:30 35.233388 -119.772265 143 33269ft 465kts
01-Feb-18 22:31 35.131159 -119.676839 143 32779ft 462kts
01-Feb-18 22:32 35.029991 -119.582684 143 30802ft 452kts
01-Feb-18 22:33 34.932972 -119.492650 142 28465ft 430kts
01-Feb-18 22:34 34.836917 -119.406038 143 26728ft 428kts
01-Feb-18 22:35 34.744702 -119.323706 144 24820ft 418kts
01-Feb-18 22:36 34.652216 -119.242930 144 23129ft 407kts
01-Feb-18 22:37 34.562496 -119.165550 144 20684ft 392kts
01-Feb-18 22:38 34.475887 -119.088936 143 18981ft 382kts
01-Feb-18 22:39 34.391166 -119.014808 144 17159ft 371kts
01-Feb-18 22:40 34.309535 -118.943054 144 16001ft 357kts
01-Feb-18 22:41 34.231715 -118.872062 144 15946ft 336kts
01-Feb-18 22:42 34.164864 -118.805556 142 14881ft 305kts
01-Feb-18 22:43 34.100911 -118.738823 138 13220ft 303kts
01-Feb-18 22:44 34.038082 -118.671934 128 11774ft 291kts
01-Feb-18 22:45 34.021840 -118.582578 94 9995ft 275kts
01-Feb-18 22:46 34.013652 -118.494245 94 8318ft 247kts
01-Feb-18 22:47 34.017276 -118.416022 77 7355ft 237kts
01-Feb-18 22:48 34.029111 -118.340960 82 6429ft 235kts
01-Feb-18 22:49 34.037161 -118.264147 82 5547ft 230kts
01-Feb-18 22:50 34.045168 -118.187674 82 5002ft 230kts
01-Feb-18 22:51 34.050679 -118.109361 105 3880ft 239kts
01-Feb-18 22:52 33.998683 -118.076941 173 3583ft 222kts
01-Feb-18 22:53 33.963693 -118.120275 267 3603ft 204kts
01-Feb-18 22:54 33.958435 -118.180521 261 3401ft 171kts
01-Feb-18 22:55 33.952033 -118.241830 262 2408ft 181kts
01-Feb-18 22:56 33.946138 -118.298407 262 1500ft 155kts
01-Feb-18 22:57 33.940883 -118.348721 263 690ft 150kts
01-Feb-18 22:58 33.935767 -118.398059 263 114ft 118kts
01-Feb-18 22:59 33.936026 -118.408519 285 127ft 14kts
01-Feb-18 23:00 33.937840 -118.409122 354 127ft 0kts
01-Feb-18 23:01 33.938105 -118.406558 81 127ft 16kts
01-Feb-18 23:02 33.938791 -118.399783 83 117ft 22kts
01-Feb-18 23:03 33.941263 -118.397939 77 114ft 4kts

Navigation Log

Ident Type
Flight plan parsing failed, navigation log unavailable